Time;durP1;ratioP1;P1;durP2;ratioP2;P2;SDS_P1;SDS_P2;PMS_P1;PMS_P2;Temp;Humidity;BMP_temperature;BMP_pressure;BME280_temperature;BME280_humidity;BME280_pressure;Samples;Min_cycle;Max_cycle;Signal;HPM_P1;HPM_P2
2022/03/07 00:00:36;;;;;;;46.15;18.90;;;;;;;;;;767356;184;630165;-64
2022/03/07 00:03:02;;;;;;;49.10;24.57;;;;;;;;;;761592;183;631365;-65
2022/03/07 00:05:28;;;;;;;39.00;19.07;;;;;;;;;;751155;183;616664;-64
2022/03/07 00:07:54;;;;;;;37.17;23.73;;;;;;;;;;752133;185;630130;-66
2022/03/07 00:10:20;;;;;;;48.40;22.77;;;;;;;;;;764601;184;621297;-65
2022/03/07 00:12:46;;;;;;;41.53;22.40;;;;;;;;;;762666;184;635686;-65
2022/03/07 00:15:11;;;;;;;37.17;18.17;;;;;;;;;;762971;184;625121;-64
2022/03/07 00:17:37;;;;;;;44.60;25.93;;;;;;;;;;768367;184;626393;-66
2022/03/07 00:20:03;;;;;;;47.60;24.47;;;;;;;;;;763273;183;629043;-65
2022/03/07 00:22:29;;;;;;;39.63;22.37;;;;;;;;;;759826;184;614527;-64
2022/03/07 00:24:55;;;;;;;39.70;22.07;;;;;;;;;;758216;184;624931;-65
2022/03/07 00:27:21;;;;;;;41.93;22.10;;;;;;;;;;755248;184;630156;-65
2022/03/07 00:29:47;;;;;;;32.80;18.67;;;;;;;;;;756435;184;629720;-65
2022/03/07 00:32:13;;;;;;;32.33;21.17;;;;;;;;;;760662;184;626789;-64
2022/03/07 00:34:38;;;;;;;41.20;22.27;;;;;;;;;;763293;184;627057;-64
2022/03/07 00:37:05;;;;;;;41.37;18.73;;;;;;;;;;762669;184;623310;-64
2022/03/07 00:39:30;;;;;;;49.13;25.20;;;;;;;;;;752021;184;624246;-65
2022/03/07 00:41:56;;;;;;;41.87;24.60;;;;;;;;;;756771;184;625349;-64
2022/03/07 00:44:22;;;;;;;38.17;23.30;;;;;;;;;;752191;183;752703;-64
2022/03/07 00:46:48;;;;;;;40.50;24.17;;;;;;;;;;765649;184;624926;-64
2022/03/07 00:49:14;;;;;;;45.43;23.90;;;;;;;;;;757827;184;639855;-63
2022/03/07 00:51:39;;;;;;;40.90;23.03;;;;;;;;;;753926;184;641235;-64
2022/03/07 00:54:05;;;;;;;42.53;20.27;;;;;;;;;;753189;185;648401;-64
2022/03/07 00:56:31;;;;;;;39.80;24.00;;;;;;;;;;749824;183;629259;-64
2022/03/07 00:58:57;;;;;;;39.23;24.27;;;;;;;;;;756563;183;616815;-64
2022/03/07 01:01:23;;;;;;;28.60;19.40;;;;;;;;;;754070;184;629739;-64
2022/03/07 01:03:50;;;;;;;40.77;24.00;;;;;;;;;;750316;184;647755;-64
2022/03/07 01:06:14;;;;;;;39.13;21.70;;;;;;;;;;759589;184;632746;-64
2022/03/07 01:08:40;;;;;;;36.97;22.57;;;;;;;;;;757172;183;621231;-64
2022/03/07 01:11:06;;;;;;;32.00;20.57;;;;;;;;;;763968;183;629160;-64
2022/03/07 01:13:32;;;;;;;40.00;22.20;;;;;;;;;;766704;184;635258;-65
2022/03/07 01:15:58;;;;;;;22.07;16.07;;;;;;;;;;757781;184;623921;-64
2022/03/07 01:18:24;;;;;;;33.47;18.20;;;;;;;;;;752448;184;635766;-64
2022/03/07 01:20:50;;;;;;;36.27;21.07;;;;;;;;;;757257;185;633610;-63
2022/03/07 01:23:16;;;;;;;35.37;20.40;;;;;;;;;;755080;184;708939;-63
2022/03/07 01:25:41;;;;;;;29.97;17.73;;;;;;;;;;754834;184;634719;-63
2022/03/07 01:28:07;;;;;;;35.10;19.90;;;;;;;;;;764266;184;631176;-64
2022/03/07 01:30:33;;;;;;;34.17;20.70;;;;;;;;;;764021;184;618331;-64
2022/03/07 01:32:59;;;;;;;37.87;19.90;;;;;;;;;;764100;184;614339;-64
2022/03/07 01:35:25;;;;;;;38.53;21.40;;;;;;;;;;758982;184;637042;-64
2022/03/07 01:37:51;;;;;;;33.53;18.47;;;;;;;;;;756676;184;628785;-62
2022/03/07 01:40:17;;;;;;;33.27;21.93;;;;;;;;;;754363;184;625842;-63
2022/03/07 01:42:42;;;;;;;35.80;20.33;;;;;;;;;;757031;184;618926;-63
2022/03/07 01:45:16;;;;;;;40.77;20.57;;;;;;;;;;764616;184;615082;-64
2022/03/07 01:47:42;;;;;;;31.73;19.13;;;;;;;;;;755296;184;639987;-64
2022/03/07 01:50:08;;;;;;;33.53;18.40;;;;;;;;;;756457;184;623223;-64
2022/03/07 01:52:34;;;;;;;34.17;20.90;;;;;;;;;;757472;184;621199;-64
2022/03/07 01:55:00;;;;;;;41.10;22.40;;;;;;;;;;752948;184;620625;-63
2022/03/07 01:57:26;;;;;;;32.10;20.97;;;;;;;;;;754412;184;627589;-64
2022/03/07 01:59:52;;;;;;;39.67;19.77;;;;;;;;;;762024;182;633345;-64
2022/03/07 02:02:17;;;;;;;39.20;20.77;;;;;;;;;;770945;183;619993;-64
2022/03/07 02:04:43;;;;;;;38.30;22.40;;;;;;;;;;761701;183;628118;-66
2022/03/07 02:07:09;;;;;;;29.50;19.40;;;;;;;;;;753496;183;635444;-65
2022/03/07 02:09:35;;;;;;;36.33;20.90;;;;;;;;;;752310;184;625919;-65
2022/03/07 02:12:01;;;;;;;30.50;19.30;;;;;;;;;;757001;183;632122;-64
2022/03/07 02:14:27;;;;;;;28.67;18.77;;;;;;;;;;752116;183;634809;-65
2022/03/07 02:16:52;;;;;;;28.53;15.97;;;;;;;;;;753673;183;628360;-64
2022/03/07 02:19:18;;;;;;;31.50;18.80;;;;;;;;;;760582;184;624128;-64
2022/03/07 02:21:44;;;;;;;38.30;20.87;;;;;;;;;;761704;184;630640;-66
2022/03/07 02:24:10;;;;;;;27.87;17.20;;;;;;;;;;754869;184;627276;-66
2022/03/07 02:26:36;;;;;;;30.87;19.30;;;;;;;;;;753483;184;624212;-66
2022/03/07 02:29:02;;;;;;;29.03;19.20;;;;;;;;;;750406;183;636915;-66
2022/03/07 02:31:29;;;;;;;29.23;16.50;;;;;;;;;;750416;184;632904;-66
2022/03/07 02:33:53;;;;;;;32.03;17.97;;;;;;;;;;754720;184;619985;-65
2022/03/07 02:36:19;;;;;;;29.93;19.00;;;;;;;;;;749484;185;632142;-65
2022/03/07 02:38:45;;;;;;;36.03;20.30;;;;;;;;;;752387;184;625651;-66
2022/03/07 02:41:11;;;;;;;33.03;19.83;;;;;;;;;;751889;184;633747;-65
2022/03/07 02:43:37;;;;;;;38.80;21.00;;;;;;;;;;756017;184;634998;-65
2022/03/07 02:46:03;;;;;;;33.67;20.10;;;;;;;;;;763095;184;619201;-66
2022/03/07 02:48:28;;;;;;;32.53;21.00;;;;;;;;;;749690;183;616411;-65
2022/03/07 02:50:55;;;;;;;28.50;18.87;;;;;;;;;;753786;184;633245;-67
2022/03/07 02:53:20;;;;;;;33.30;19.13;;;;;;;;;;751638;184;614893;-66
2022/03/07 02:55:46;;;;;;;27.33;15.47;;;;;;;;;;755239;184;655506;-66
2022/03/07 02:58:12;;;;;;;21.17;13.70;;;;;;;;;;747582;184;635183;-66
2022/03/07 03:00:38;;;;;;;28.93;19.13;;;;;;;;;;748571;184;629192;-65
2022/03/07 03:03:03;;;;;;;23.30;16.20;;;;;;;;;;755311;184;630141;-65
2022/03/07 03:05:29;;;;;;;28.60;17.03;;;;;;;;;;760651;184;725912;-65
2022/03/07 03:07:55;;;;;;;27.50;18.70;;;;;;;;;;756317;185;632789;-66
2022/03/07 03:10:21;;;;;;;33.83;20.17;;;;;;;;;;754194;183;637272;-67
2022/03/07 03:12:47;;;;;;;30.37;19.00;;;;;;;;;;754413;184;625768;-65
2022/03/07 03:15:13;;;;;;;31.37;20.13;;;;;;;;;;761267;183;619020;-66
2022/03/07 03:17:40;;;;;;;29.67;20.73;;;;;;;;;;753299;183;617267;-65
2022/03/07 03:20:05;;;;;;;30.33;18.07;;;;;;;;;;752618;183;629839;-66
2022/03/07 03:22:32;;;;;;;33.60;18.10;;;;;;;;;;757987;184;617243;-66
2022/03/07 03:24:57;;;;;;;28.73;19.43;;;;;;;;;;756147;185;628081;-66
2022/03/07 03:27:23;;;;;;;28.77;17.57;;;;;;;;;;752968;184;632696;-67
2022/03/07 03:29:49;;;;;;;33.27;19.70;;;;;;;;;;752272;183;631582;-66
2022/03/07 03:32:15;;;;;;;37.00;19.47;;;;;;;;;;751699;183;615634;-67
2022/03/07 03:34:40;;;;;;;31.90;18.97;;;;;;;;;;748698;183;625802;-68
2022/03/07 03:37:06;;;;;;;42.70;21.43;;;;;;;;;;753043;183;640975;-68
2022/03/07 03:39:32;;;;;;;36.30;21.60;;;;;;;;;;758342;184;627448;-67
2022/03/07 03:41:58;;;;;;;31.07;21.60;;;;;;;;;;761898;183;665681;-67
2022/03/07 03:44:24;;;;;;;37.43;21.30;;;;;;;;;;762035;183;625853;-67
2022/03/07 03:46:49;;;;;;;33.00;23.20;;;;;;;;;;757652;184;616759;-68
2022/03/07 03:49:15;;;;;;;40.20;23.70;;;;;;;;;;755074;184;633706;-68
2022/03/07 03:51:41;;;;;;;35.97;23.47;;;;;;;;;;758513;184;630429;-68
2022/03/07 03:54:07;;;;;;;40.90;20.47;;;;;;;;;;759107;185;637946;-68
2022/03/07 03:56:33;;;;;;;29.40;20.50;;;;;;;;;;757283;185;628805;-67
2022/03/07 03:58:59;;;;;;;43.13;24.90;;;;;;;;;;750633;185;644971;-68
2022/03/07 04:01:25;;;;;;;32.70;16.67;;;;;;;;;;748554;184;630645;-67
2022/03/07 04:03:50;;;;;;;31.80;19.53;;;;;;;;;;741457;183;623690;-68
2022/03/07 04:06:16;;;;;;;39.07;22.30;;;;;;;;;;752331;184;639950;-69
2022/03/07 04:08:42;;;;;;;36.93;22.50;;;;;;;;;;753371;184;628586;-68
2022/03/07 04:11:09;;;;;;;36.60;22.70;;;;;;;;;;760646;184;637001;-68
2022/03/07 04:13:34;;;;;;;29.03;17.20;;;;;;;;;;761340;184;639310;-68
2022/03/07 04:16:00;;;;;;;31.20;20.37;;;;;;;;;;753933;184;716926;-68
2022/03/07 04:18:26;;;;;;;35.77;24.50;;;;;;;;;;758089;184;631771;-68
2022/03/07 04:20:52;;;;;;;37.17;21.20;;;;;;;;;;755073;184;640814;-68
2022/03/07 04:23:21;;;;;;;34.97;23.67;;;;;;;;;;757391;183;632096;-67
2022/03/07 04:25:44;;;;;;;37.77;23.80;;;;;;;;;;759541;184;628508;-67
2022/03/07 04:28:10;;;;;;;36.10;21.43;;;;;;;;;;757387;183;635466;-68
2022/03/07 04:30:36;;;;;;;36.63;23.47;;;;;;;;;;757186;183;618164;-68
2022/03/07 04:33:01;;;;;;;34.57;21.43;;;;;;;;;;760478;184;658454;-68
2022/03/07 04:35:27;;;;;;;37.50;23.60;;;;;;;;;;760427;183;639543;-67
2022/03/07 04:37:53;;;;;;;34.70;22.70;;;;;;;;;;758621;184;633855;-66
2022/03/07 04:40:19;;;;;;;36.00;22.50;;;;;;;;;;760228;184;628037;-68
2022/03/07 04:42:45;;;;;;;32.93;22.30;;;;;;;;;;755035;183;632226;-67
2022/03/07 04:45:11;;;;;;;36.53;22.00;;;;;;;;;;750748;185;616077;-68
2022/03/07 04:47:37;;;;;;;38.07;20.70;;;;;;;;;;755062;184;643934;-69
2022/03/07 04:50:03;;;;;;;24.13;14.07;;;;;;;;;;758048;184;633222;-68
2022/03/07 04:52:28;;;;;;;30.10;17.33;;;;;;;;;;755345;184;642025;-68
2022/03/07 04:54:54;;;;;;;34.20;20.13;;;;;;;;;;753432;184;624718;-68
2022/03/07 04:57:20;;;;;;;30.17;18.53;;;;;;;;;;756680;184;672913;-68
2022/03/07 04:59:46;;;;;;;26.33;15.77;;;;;;;;;;763212;181;635263;-68
2022/03/07 05:02:13;;;;;;;24.37;14.03;;;;;;;;;;754761;184;630110;-68
2022/03/07 05:04:38;;;;;;;27.30;17.73;;;;;;;;;;752930;184;665943;-69
2022/03/07 05:07:04;;;;;;;27.90;18.20;;;;;;;;;;757952;184;649931;-68
2022/03/07 05:09:29;;;;;;;29.93;18.23;;;;;;;;;;757456;183;622977;-68
2022/03/07 05:11:55;;;;;;;28.67;18.17;;;;;;;;;;756965;183;614689;-68
2022/03/07 05:14:21;;;;;;;26.87;16.83;;;;;;;;;;758953;184;632819;-68
2022/03/07 05:16:47;;;;;;;28.93;18.63;;;;;;;;;;755224;184;655721;-69
2022/03/07 05:19:13;;;;;;;30.60;19.13;;;;;;;;;;756755;184;627874;-68
2022/03/07 05:21:39;;;;;;;28.20;18.27;;;;;;;;;;756904;184;625235;-68
2022/03/07 05:24:05;;;;;;;26.67;15.17;;;;;;;;;;756478;183;615050;-68
2022/03/07 05:26:30;;;;;;;30.07;16.63;;;;;;;;;;755082;183;630308;-67
2022/03/07 05:28:56;;;;;;;26.87;17.90;;;;;;;;;;757624;184;613569;-68
2022/03/07 05:31:22;;;;;;;26.77;18.53;;;;;;;;;;766423;183;636813;-68
2022/03/07 05:33:48;;;;;;;30.90;19.03;;;;;;;;;;752999;183;727584;-68
2022/03/07 05:36:14;;;;;;;33.63;19.10;;;;;;;;;;755878;184;624771;-68
2022/03/07 05:38:40;;;;;;;33.13;18.53;;;;;;;;;;760868;184;692860;-68
2022/03/07 05:41:06;;;;;;;26.93;16.73;;;;;;;;;;757825;183;634907;-68
2022/03/07 05:43:31;;;;;;;29.57;16.37;;;;;;;;;;762706;183;618857;-67
2022/03/07 05:45:57;;;;;;;25.97;16.80;;;;;;;;;;764717;183;637044;-67
2022/03/07 05:48:24;;;;;;;30.23;17.87;;;;;;;;;;756591;184;628068;-67
2022/03/07 05:50:50;;;;;;;25.60;17.97;;;;;;;;;;755526;183;639462;-67
2022/03/07 05:53:21;;;;;;;27.37;16.40;;;;;;;;;;753871;180;627252;-67
2022/03/07 05:55:42;;;;;;;30.97;16.30;;;;;;;;;;758655;184;628412;-67
2022/03/07 05:58:08;;;;;;;32.30;18.43;;;;;;;;;;755922;184;627797;-68
2022/03/07 06:00:33;;;;;;;27.10;16.50;;;;;;;;;;756667;184;636219;-67
2022/03/07 06:02:59;;;;;;;25.70;17.63;;;;;;;;;;759828;184;645744;-68
2022/03/07 06:05:25;;;;;;;25.23;16.67;;;;;;;;;;756355;184;629596;-67
2022/03/07 06:07:51;;;;;;;24.90;15.87;;;;;;;;;;758238;184;625343;-68
2022/03/07 06:10:17;;;;;;;28.50;16.67;;;;;;;;;;758333;184;617722;-67
2022/03/07 06:12:43;;;;;;;26.30;17.77;;;;;;;;;;753400;184;634310;-68
2022/03/07 06:15:08;;;;;;;23.70;13.50;;;;;;;;;;760626;184;631131;-67
2022/03/07 06:17:35;;;;;;;22.45;14.18;;;;;;;;;;763473;184;621017;-68
2022/03/07 06:20:00;;;;;;;22.57;14.43;;;;;;;;;;761539;180;623493;-67
2022/03/07 06:22:26;;;;;;;30.80;16.57;;;;;;;;;;756790;184;624223;-68
2022/03/07 06:24:52;;;;;;;25.43;16.67;;;;;;;;;;751182;184;625235;-67
2022/03/07 06:27:18;;;;;;;24.03;16.97;;;;;;;;;;752874;185;632240;-68
2022/03/07 06:29:44;;;;;;;23.83;14.07;;;;;;;;;;754278;183;635212;-67
2022/03/07 06:32:10;;;;;;;25.47;15.63;;;;;;;;;;752217;184;621799;-68
2022/03/07 06:34:35;;;;;;;20.80;14.30;;;;;;;;;;763882;184;663276;-67
2022/03/07 06:37:01;;;;;;;22.77;13.57;;;;;;;;;;762788;184;613486;-68
2022/03/07 06:39:27;;;;;;;25.53;16.60;;;;;;;;;;762603;184;628289;-68
2022/03/07 06:41:53;;;;;;;25.80;15.03;;;;;;;;;;762585;184;615122;-67
2022/03/07 06:44:19;;;;;;;21.90;15.30;;;;;;;;;;751971;184;623804;-67
2022/03/07 06:46:45;;;;;;;25.60;15.47;;;;;;;;;;758480;184;617362;-68
2022/03/07 06:49:11;;;;;;;23.07;14.97;;;;;;;;;;759310;183;625756;-67
2022/03/07 06:51:37;;;;;;;24.10;14.30;;;;;;;;;;759822;183;615246;-68
2022/03/07 06:54:02;;;;;;;23.90;14.73;;;;;;;;;;750669;183;653950;-68
2022/03/07 06:56:28;;;;;;;26.50;15.03;;;;;;;;;;758651;184;629802;-68
2022/03/07 06:58:54;;;;;;;56.00;26.27;;;;;;;;;;767004;184;630064;-68
2022/03/07 07:01:20;;;;;;;29.20;16.23;;;;;;;;;;757129;184;626313;-67
2022/03/07 07:03:46;;;;;;;32.00;19.47;;;;;;;;;;752739;184;625313;-68
2022/03/07 07:06:12;;;;;;;48.30;27.33;;;;;;;;;;760921;184;622068;-68
2022/03/07 07:08:37;;;;;;;29.17;16.60;;;;;;;;;;755699;183;642993;-67
2022/03/07 07:11:03;;;;;;;39.03;21.80;;;;;;;;;;756083;183;625046;-67
2022/03/07 07:13:29;;;;;;;24.90;16.63;;;;;;;;;;757708;184;626903;-67
2022/03/07 07:15:55;;;;;;;27.73;17.33;;;;;;;;;;764786;183;716786;-67
2022/03/07 07:18:21;;;;;;;25.00;16.40;;;;;;;;;;755850;183;638104;-67
2022/03/07 07:20:47;;;;;;;20.23;13.20;;;;;;;;;;755656;184;626854;-67
2022/03/07 07:23:12;;;;;;;28.60;14.90;;;;;;;;;;759072;184;634737;-67
2022/03/07 07:25:38;;;;;;;22.83;14.70;;;;;;;;;;754048;184;627103;-67
2022/03/07 07:28:04;;;;;;;29.63;18.07;;;;;;;;;;755774;184;614493;-67
2022/03/07 07:30:30;;;;;;;26.63;16.33;;;;;;;;;;762111;184;636609;-67
2022/03/07 07:32:56;;;;;;;25.07;15.40;;;;;;;;;;755310;184;625289;-68
2022/03/07 07:35:22;;;;;;;23.67;14.30;;;;;;;;;;757000;184;630816;-65
2022/03/07 07:37:48;;;;;;;23.93;16.40;;;;;;;;;;757797;185;623103;-65
2022/03/07 07:40:13;;;;;;;26.13;14.23;;;;;;;;;;745000;185;642341;-64
2022/03/07 07:42:39;;;;;;;22.83;14.20;;;;;;;;;;751670;184;638501;-64
2022/03/07 07:45:05;;;;;;;29.03;16.10;;;;;;;;;;751827;184;616103;-63
2022/03/07 07:47:31;;;;;;;18.70;9.87;;;;;;;;;;760092;182;622665;-63
2022/03/07 07:49:57;;;;;;;22.17;13.33;;;;;;;;;;754581;184;634817;-64
2022/03/07 07:52:23;;;;;;;18.47;12.03;;;;;;;;;;754235;184;632015;-63
2022/03/07 07:54:49;;;;;;;22.23;14.90;;;;;;;;;;758315;184;819352;-64
2022/03/07 07:57:14;;;;;;;21.47;13.30;;;;;;;;;;757116;184;619780;-64
2022/03/07 07:59:40;;;;;;;19.97;12.90;;;;;;;;;;758602;184;629326;-65
2022/03/07 08:02:06;;;;;;;20.37;13.33;;;;;;;;;;760604;184;625658;-65
2022/03/07 08:04:32;;;;;;;22.77;12.67;;;;;;;;;;754555;184;628508;-64
2022/03/07 08:06:58;;;;;;;19.87;11.67;;;;;;;;;;754989;184;628861;-65
2022/03/07 08:09:24;;;;;;;24.87;12.30;;;;;;;;;;757605;184;629830;-65
2022/03/07 08:11:50;;;;;;;11.37;8.67;;;;;;;;;;765933;180;632900;-66
2022/03/07 08:14:15;;;;;;;13.13;6.20;;;;;;;;;;758239;183;629588;-64
2022/03/07 08:16:41;;;;;;;18.00;11.10;;;;;;;;;;754154;184;697215;-65
2022/03/07 08:19:07;;;;;;;14.80;8.30;;;;;;;;;;763370;184;643618;-64
2022/03/07 08:21:33;;;;;;;9.17;6.90;;;;;;;;;;756763;184;637166;-64
2022/03/07 08:24:01;;;;;;;18.50;10.03;;;;;;;;;;757665;183;635860;-65
2022/03/07 08:26:27;;;;;;;21.83;9.60;;;;;;;;;;755891;184;613495;-66
2022/03/07 08:28:52;;;;;;;16.80;8.97;;;;;;;;;;753443;184;614881;-65
2022/03/07 08:31:18;;;;;;;14.43;8.10;;;;;;;;;;755003;184;652337;-65
2022/03/07 08:33:44;;;;;;;10.47;5.30;;;;;;;;;;754214;184;634857;-65
2022/03/07 08:36:10;;;;;;;10.10;6.60;;;;;;;;;;759100;184;645624;-65
2022/03/07 08:38:36;;;;;;;12.93;7.50;;;;;;;;;;754334;184;633515;-64
2022/03/07 08:41:02;;;;;;;8.47;4.57;;;;;;;;;;757900;184;635770;-65
2022/03/07 08:43:27;;;;;;;8.60;6.63;;;;;;;;;;758491;183;629249;-65
2022/03/07 08:45:53;;;;;;;8.87;5.30;;;;;;;;;;756805;184;629706;-65
2022/03/07 08:48:19;;;;;;;13.00;7.20;;;;;;;;;;753401;184;628121;-65
2022/03/07 08:50:48;;;;;;;14.23;6.07;;;;;;;;;;754968;184;621780;-65
2022/03/07 08:53:11;;;;;;;9.87;6.10;;;;;;;;;;756624;184;627062;-64
2022/03/07 08:55:37;;;;;;;14.17;5.33;;;;;;;;;;761998;184;645219;-65
2022/03/07 08:58:03;;;;;;;8.40;5.73;;;;;;;;;;762318;180;632177;-65
2022/03/07 09:00:29;;;;;;;7.87;5.53;;;;;;;;;;753439;186;630969;-65
2022/03/07 09:02:54;;;;;;;9.60;6.53;;;;;;;;;;756376;184;633251;-65
2022/03/07 09:05:20;;;;;;;17.17;8.60;;;;;;;;;;747443;184;627064;-66
2022/03/07 09:07:46;;;;;;;12.93;8.00;;;;;;;;;;754776;184;613363;-65
2022/03/07 09:10:12;;;;;;;18.90;8.63;;;;;;;;;;756158;184;625920;-64
2022/03/07 09:12:38;;;;;;;8.07;5.60;;;;;;;;;;763764;183;629827;-64
2022/03/07 09:15:04;;;;;;;9.27;6.00;;;;;;;;;;754206;184;616707;-64
2022/03/07 09:17:29;;;;;;;8.87;6.13;;;;;;;;;;753127;184;627799;-64
2022/03/07 09:19:56;;;;;;;14.50;10.23;;;;;;;;;;757258;184;635406;-64
2022/03/07 09:22:22;;;;;;;8.43;6.10;;;;;;;;;;760515;184;628986;-64
2022/03/07 09:24:48;;;;;;;12.73;5.73;;;;;;;;;;755912;184;614400;-64
2022/03/07 09:27:14;;;;;;;15.40;8.60;;;;;;;;;;757057;183;634161;-65
2022/03/07 09:29:40;;;;;;;23.40;14.10;;;;;;;;;;756047;183;648179;-64
2022/03/07 09:32:06;;;;;;;10.70;7.70;;;;;;;;;;759815;184;635249;-65
2022/03/07 09:34:31;;;;;;;34.87;20.23;;;;;;;;;;761148;184;635158;-65
2022/03/07 09:36:57;;;;;;;11.03;6.13;;;;;;;;;;764399;184;623590;-65
2022/03/07 09:39:23;;;;;;;37.50;16.33;;;;;;;;;;755165;184;607219;-64
2022/03/07 09:41:49;;;;;;;18.20;9.10;;;;;;;;;;749030;184;629332;-65
2022/03/07 09:44:15;;;;;;;32.50;13.90;;;;;;;;;;758581;183;624115;-65
2022/03/07 09:46:41;;;;;;;20.53;10.77;;;;;;;;;;756381;184;614180;-64
2022/03/07 09:49:06;;;;;;;51.33;31.77;;;;;;;;;;751524;184;631050;-64
2022/03/07 09:51:34;;;;;;;9.23;4.50;;;;;;;;;;761915;183;629839;-64
2022/03/07 09:53:59;;;;;;;7.13;4.70;;;;;;;;;;757063;184;635876;-64
2022/03/07 09:56:25;;;;;;;3.53;3.07;;;;;;;;;;766197;184;624393;-64
2022/03/07 09:58:51;;;;;;;7.73;5.70;;;;;;;;;;755082;184;618632;-64
2022/03/07 10:01:19;;;;;;;9.07;4.80;;;;;;;;;;755413;184;628435;-65
2022/03/07 10:03:43;;;;;;;9.40;6.10;;;;;;;;;;759935;184;620167;-64
2022/03/07 10:06:10;;;;;;;5.73;4.30;;;;;;;;;;755552;184;721755;-64
2022/03/07 10:08:36;;;;;;;7.10;5.37;;;;;;;;;;756774;184;705665;-65
2022/03/07 10:11:02;;;;;;;16.30;5.17;;;;;;;;;;758063;184;613903;-65
2022/03/07 10:13:27;;;;;;;18.37;5.00;;;;;;;;;;746731;187;628182;-64
2022/03/07 10:15:57;;;;;;;11.23;5.97;;;;;;;;;;752210;183;628063;-65
2022/03/07 10:18:23;;;;;;;4.70;3.07;;;;;;;;;;757087;184;622116;-66
2022/03/07 10:20:49;;;;;;;6.53;5.37;;;;;;;;;;759977;182;628552;-65
2022/03/07 10:23:15;;;;;;;8.50;4.90;;;;;;;;;;758765;183;623488;-64
2022/03/07 10:25:43;;;;;;;10.30;5.70;;;;;;;;;;755076;184;631641;-62
2022/03/07 10:28:08;;;;;;;10.00;4.40;;;;;;;;;;762657;183;615416;-63
2022/03/07 10:30:32;;;;;;;8.40;2.80;;;;;;;;;;753548;183;725123;-64
2022/03/07 10:32:59;;;;;;;2.93;2.00;;;;;;;;;;751385;182;624832;-65
2022/03/07 10:35:25;;;;;;;6.73;4.30;;;;;;;;;;759630;184;630359;-65
2022/03/07 10:37:51;;;;;;;13.57;8.03;;;;;;;;;;757040;183;632456;-65
2022/03/07 10:40:18;;;;;;;8.00;4.40;;;;;;;;;;756270;184;634249;-64
2022/03/07 10:42:44;;;;;;;10.40;5.57;;;;;;;;;;749934;184;631535;-64
2022/03/07 10:45:10;;;;;;;11.50;7.10;;;;;;;;;;756214;184;654019;-65
2022/03/07 10:47:36;;;;;;;21.33;7.93;;;;;;;;;;755043;183;630158;-65
2022/03/07 10:50:02;;;;;;;5.23;3.40;;;;;;;;;;755514;184;623681;-64
2022/03/07 10:52:33;;;;;;;13.00;5.50;;;;;;;;;;760267;184;634979;-64
2022/03/07 10:54:59;;;;;;;9.30;4.60;;;;;;;;;;759334;183;617694;-64
2022/03/07 10:57:25;;;;;;;8.60;4.17;;;;;;;;;;752198;185;616888;-65
2022/03/07 10:59:51;;;;;;;9.00;4.90;;;;;;;;;;753125;184;641851;-64
2022/03/07 11:02:17;;;;;;;12.93;5.53;;;;;;;;;;758669;184;614479;-65
2022/03/07 11:04:43;;;;;;;11.43;3.80;;;;;;;;;;756775;184;630988;-65
2022/03/07 11:07:09;;;;;;;4.37;3.13;;;;;;;;;;756409;184;624679;-65
2022/03/07 11:09:35;;;;;;;8.90;3.73;;;;;;;;;;764027;184;616433;-65
2022/03/07 11:12:01;;;;;;;4.80;2.47;;;;;;;;;;757757;184;626205;-64
2022/03/07 11:14:27;;;;;;;5.60;3.23;;;;;;;;;;755739;184;632115;-65
2022/03/07 11:16:56;;;;;;;4.80;3.50;;;;;;;;;;758830;184;619201;-65
2022/03/07 11:19:19;;;;;;;2.80;2.37;;;;;;;;;;755980;184;640754;-66
2022/03/07 11:21:45;;;;;;;6.63;3.70;;;;;;;;;;754948;184;629007;-65
2022/03/07 11:24:11;;;;;;;7.23;3.60;;;;;;;;;;755577;184;614978;-64
2022/03/07 11:26:41;;;;;;;5.60;3.60;;;;;;;;;;753775;184;633273;-63
2022/03/07 11:29:02;;;;;;;9.27;4.83;;;;;;;;;;758743;184;740435;-65
2022/03/07 11:31:29;;;;;;;7.77;5.80;;;;;;;;;;754551;184;630894;-69
2022/03/07 11:33:54;;;;;;;6.03;3.60;;;;;;;;;;763708;184;632870;-64
2022/03/07 11:36:20;;;;;;;6.87;3.17;;;;;;;;;;755333;183;623198;-63
2022/03/07 11:38:50;;;;;;;6.60;4.37;;;;;;;;;;756004;183;625260;-65
2022/03/07 11:41:16;;;;;;;8.80;4.20;;;;;;;;;;762826;183;641111;-65
2022/03/07 11:43:47;;;;;;;9.07;4.73;;;;;;;;;;756036;184;619155;-63
2022/03/07 11:46:13;;;;;;;9.03;5.47;;;;;;;;;;756775;184;628458;-64
2022/03/07 11:48:41;;;;;;;8.30;4.80;;;;;;;;;;754106;184;644953;-65
2022/03/07 11:51:07;;;;;;;10.93;6.50;;;;;;;;;;765752;184;637051;-63
2022/03/07 11:53:33;;;;;;;12.00;6.60;;;;;;;;;;760503;183;631822;-65
2022/03/07 11:55:59;;;;;;;10.07;7.37;;;;;;;;;;756318;183;614572;-64
2022/03/07 11:58:26;;;;;;;8.53;4.90;;;;;;;;;;756061;183;626255;-65
2022/03/07 12:00:52;;;;;;;9.00;6.30;;;;;;;;;;754935;184;628490;-63
2022/03/07 12:03:22;;;;;;;7.97;5.03;;;;;;;;;;754545;184;621056;-65
2022/03/07 12:05:45;;;;;;;21.47;11.03;;;;;;;;;;757554;184;621273;-64
2022/03/07 12:08:11;;;;;;;25.57;14.87;;;;;;;;;;761419;184;629177;-63
2022/03/07 12:10:38;;;;;;;14.20;8.60;;;;;;;;;;756833;184;639410;-64
2022/03/07 12:13:04;;;;;;;15.67;11.93;;;;;;;;;;758568;184;711108;-66
2022/03/07 12:15:30;;;;;;;13.60;8.73;;;;;;;;;;758492;184;623556;-65
2022/03/07 12:17:56;;;;;;;15.60;9.13;;;;;;;;;;755017;184;619641;-65
2022/03/07 12:20:22;;;;;;;16.47;9.63;;;;;;;;;;748401;184;633430;-65
2022/03/07 12:22:48;;;;;;;16.90;8.30;;;;;;;;;;755121;184;637369;-64
2022/03/07 12:25:14;;;;;;;14.10;11.00;;;;;;;;;;753751;186;635485;-64
2022/03/07 12:27:41;;;;;;;14.73;8.03;;;;;;;;;;753805;184;639696;-64
2022/03/07 12:30:06;;;;;;;11.37;7.63;;;;;;;;;;756109;184;637050;-66
2022/03/07 12:32:32;;;;;;;11.27;6.97;;;;;;;;;;760914;184;634551;-65
2022/03/07 12:34:59;;;;;;;15.77;9.67;;;;;;;;;;756487;184;628129;-65
2022/03/07 12:37:28;;;;;;;14.23;9.00;;;;;;;;;;756440;184;628593;-65
2022/03/07 12:39:51;;;;;;;19.00;12.70;;;;;;;;;;760712;184;628895;-65
2022/03/07 12:42:17;;;;;;;10.07;5.60;;;;;;;;;;754932;184;656730;-65
2022/03/07 12:44:42;;;;;;;12.43;6.97;;;;;;;;;;756111;183;640921;-66
2022/03/07 12:47:08;;;;;;;12.57;7.73;;;;;;;;;;756657;184;626854;-65
2022/03/07 12:49:34;;;;;;;16.13;6.80;;;;;;;;;;764375;180;635180;-65
2022/03/07 12:52:04;;;;;;;9.80;7.60;;;;;;;;;;759197;183;624179;-65
2022/03/07 12:54:28;;;;;;;38.93;15.63;;;;;;;;;;754904;184;628643;-65
2022/03/07 12:56:53;;;;;;;53.07;15.27;;;;;;;;;;761888;184;634247;-65
2022/03/07 12:59:19;;;;;;;69.47;23.17;;;;;;;;;;759942;183;634284;-66
2022/03/07 13:01:47;;;;;;;35.27;20.03;;;;;;;;;;757820;184;635886;-65
2022/03/07 13:04:14;;;;;;;102.43;42.90;;;;;;;;;;759753;184;623600;-65
2022/03/07 13:06:45;;;;;;;73.27;42.77;;;;;;;;;;756217;183;652138;-65
2022/03/07 13:09:06;;;;;;;24.90;13.43;;;;;;;;;;751269;184;630439;-66
2022/03/07 13:11:32;;;;;;;24.87;15.33;;;;;;;;;;756761;183;630055;-65
2022/03/07 13:13:58;;;;;;;18.33;9.33;;;;;;;;;;760761;183;625973;-66
2022/03/07 13:16:24;;;;;;;11.73;9.90;;;;;;;;;;753862;183;645285;-66
2022/03/07 13:18:55;;;;;;;12.57;8.03;;;;;;;;;;754058;184;647317;-65
2022/03/07 13:21:21;;;;;;;15.87;10.53;;;;;;;;;;759412;184;643940;-62
2022/03/07 13:23:47;;;;;;;18.83;11.00;;;;;;;;;;757975;184;616296;-64
2022/03/07 13:26:21;;;;;;;24.27;12.97;;;;;;;;;;756020;184;639526;-66
2022/03/07 13:28:41;;;;;;;28.73;16.87;;;;;;;;;;753620;184;624888;-66
2022/03/07 13:31:05;;;;;;;20.23;11.20;;;;;;;;;;752676;184;627267;-67
2022/03/07 13:33:33;;;;;;;10.40;6.97;;;;;;;;;;755371;183;639923;-65
2022/03/07 13:35:59;;;;;;;19.43;11.83;;;;;;;;;;752650;184;623613;-66
2022/03/07 13:38:25;;;;;;;26.70;17.17;;;;;;;;;;755497;186;637116;-65
2022/03/07 13:40:51;;;;;;;15.23;9.67;;;;;;;;;;755614;184;637093;-66
2022/03/07 13:43:17;;;;;;;11.63;8.17;;;;;;;;;;755850;184;622703;-65
2022/03/07 13:45:43;;;;;;;25.30;12.90;;;;;;;;;;763173;184;703957;-65
2022/03/07 13:48:08;;;;;;;13.33;7.10;;;;;;;;;;764543;184;625716;-66
2022/03/07 13:50:34;;;;;;;12.60;7.27;;;;;;;;;;751599;184;629011;-65
2022/03/07 13:53:00;;;;;;;14.80;10.23;;;;;;;;;;763977;183;628084;-65
2022/03/07 13:55:26;;;;;;;13.57;9.37;;;;;;;;;;760038;185;609009;-65
2022/03/07 13:57:52;;;;;;;19.70;8.60;;;;;;;;;;752993;182;641576;-66
2022/03/07 14:00:18;;;;;;;12.90;7.47;;;;;;;;;;762281;183;618824;-66
2022/03/07 14:02:43;;;;;;;23.70;14.30;;;;;;;;;;754255;183;622730;-66